createdAt,value
2019-04-28T00:02:05.250Z,100956.13
2019-04-28T00:04:33.478Z,100961.47
2019-04-28T00:07:01.896Z,100958.89
2019-04-28T00:09:31.355Z,100961.10
2019-04-28T00:12:05.723Z,100959.84
2019-04-28T00:14:33.943Z,100961.08
2019-04-28T00:17:02.220Z,100964.23
2019-04-28T00:19:31.066Z,100956.81
2019-04-28T00:22:06.467Z,100959.39
2019-04-28T00:24:42.025Z,100962.85
2019-04-28T00:27:11.645Z,100958.59
2019-04-28T00:29:45.376Z,100956.55
2019-04-28T00:32:13.351Z,100958.82
2019-04-28T00:34:41.629Z,100960.16
2019-04-28T00:37:11.473Z,100964.87
2019-04-28T00:39:40.986Z,100964.84
2019-04-28T00:42:09.281Z,100964.05
2019-04-28T00:44:37.518Z,100962.24
2019-04-28T00:47:05.732Z,100962.35
2019-04-28T00:49:48.995Z,100958.47
2019-04-28T00:52:18.635Z,100954.11
2019-04-28T00:54:47.078Z,100962.73
2019-04-28T00:57:15.475Z,100956.27
2019-04-28T00:59:56.826Z,100967.98
2019-04-28T01:02:17.975Z,100963.69
2019-04-28T01:04:46.174Z,100962.81
2019-04-28T01:07:14.388Z,100965.44
2019-04-28T01:09:42.621Z,100967.98
2019-04-28T01:12:11.251Z,100959.76
2019-04-28T01:14:40.898Z,100960.61
2019-04-28T01:17:11.025Z,100970.08
2019-04-28T01:19:53.101Z,100971.70
2019-04-28T01:22:21.303Z,100969.90
2019-04-28T01:24:49.772Z,100973.12
2019-04-28T01:27:41.143Z,100972.66
2019-04-28T01:30:11.361Z,100967.09
2019-04-28T01:32:43.983Z,100976.22
2019-04-28T01:35:12.184Z,100978.06
2019-04-28T01:37:41.585Z,100978.02
2019-04-28T01:40:09.796Z,100975.38
2019-04-28T01:42:38.011Z,100979.30
2019-04-28T01:45:06.891Z,100973.70
2019-04-28T01:47:35.095Z,100978.55
2019-04-28T01:50:03.303Z,100970.81
2019-04-28T01:52:31.523Z,100974.27
2019-04-28T01:55:00.437Z,100973.43
2019-04-28T01:57:29.928Z,100976.47
2019-04-28T01:59:59.806Z,100974.33
2019-04-28T02:02:30.007Z,100978.63
2019-04-28T02:05:04.441Z,100975.55
2019-04-28T02:07:32.912Z,100970.20
2019-04-28T02:10:01.231Z,100975.48
2019-04-28T02:12:30.372Z,100979.45
2019-04-28T02:15:00.978Z,100982.06
2019-04-28T02:17:30.458Z,100972.89
2019-04-28T02:20:00.528Z,100977.24
2019-04-28T02:22:33.503Z,100975.56
2019-04-28T02:25:09.982Z,100973.85
2019-04-28T02:27:40.088Z,100981.63
2019-04-28T02:30:11.338Z,100981.66
2019-04-28T02:32:40.723Z,100983.77
2019-04-28T02:35:10.796Z,100983.84
2019-04-28T02:37:40.536Z,100985.16
2019-04-28T02:40:10.621Z,100991.21
2019-04-28T02:42:40.961Z,100986.91
2019-04-28T02:45:11.335Z,100987.42
2019-04-28T02:47:41.652Z,100992.20
2019-04-28T02:50:25.452Z,100990.45
2019-04-28T02:52:55.307Z,100996.43
2019-04-28T02:55:26.498Z,100988.52
2019-04-28T02:57:54.742Z,100995.48
2019-04-28T03:00:22.955Z,100993.81
2019-04-28T03:02:51.546Z,101002.09
2019-04-28T03:05:21.557Z,100992.16
2019-04-28T03:07:51.437Z,100990.81
2019-04-28T03:10:21.445Z,100994.81
2019-04-28T03:12:51.698Z,100992.64
2019-04-28T03:15:21.607Z,100992.19
2019-04-28T03:17:52.559Z,100993.89
2019-04-28T03:20:21.082Z,100993.85
2019-04-28T03:22:51.012Z,101002.16
2019-04-28T03:25:21.173Z,101007.79
2019-04-28T03:28:07.474Z,101005.60
2019-04-28T03:30:55.445Z,101006.03
2019-04-28T03:33:26.532Z,101003.05
2019-04-28T03:35:54.978Z,101001.78
2019-04-28T03:38:23.204Z,101003.52
2019-04-28T03:40:51.500Z,101005.25
2019-04-28T03:43:21.196Z,101000.89
2019-04-28T03:45:56.811Z,101007.41
2019-04-28T03:48:25.053Z,101010.44
2019-04-28T03:50:53.252Z,101007.00
2019-04-28T03:53:24.773Z,101010.44
2019-04-28T03:55:52.973Z,101008.72
2019-04-28T03:58:24.181Z,101009.66
2019-04-28T04:00:53.559Z,101005.33
2019-04-28T04:03:21.757Z,101006.64
2019-04-28T04:05:50.746Z,101014.02
2019-04-28T04:08:20.927Z,101013.59
2019-04-28T04:10:51.092Z,101009.25
2019-04-28T04:16:30.766Z,101010.58
2019-04-28T04:19:00.862Z,101013.58
2019-04-28T04:21:30.982Z,101010.55
2019-04-28T04:24:01.115Z,101009.71
2019-04-28T04:26:31.083Z,101014.88
2019-04-28T04:29:00.890Z,101017.05
2019-04-28T04:31:31.709Z,101018.76
2019-04-28T04:34:03.031Z,101020.05
2019-04-28T04:36:31.148Z,101020.88
2019-04-28T04:39:01.889Z,101019.09
2019-04-28T04:41:30.538Z,101019.06
2019-04-28T04:44:01.216Z,101018.69
2019-04-28T04:46:31.127Z,101025.20
2019-04-28T04:49:00.679Z,101020.83
2019-04-28T04:51:30.615Z,101021.25
2019-04-28T04:54:01.134Z,101020.81
2019-04-28T04:56:30.218Z,101030.31
2019-04-28T04:59:02.120Z,101034.70
2019-04-28T05:01:30.467Z,101036.02
2019-04-28T05:04:15.385Z,101042.03
2019-04-28T05:06:43.595Z,101045.55
2019-04-28T05:09:11.802Z,101047.67
2019-04-28T05:11:40.352Z,101038.10
2019-04-28T05:14:11.575Z,101049.45
2019-04-28T05:16:39.818Z,101041.70
2019-04-28T05:19:10.199Z,101047.73
2019-04-28T05:21:40.116Z,101046.02
2019-04-28T05:24:30.232Z,101049.88
2019-04-28T05:26:59.550Z,101050.81
2019-04-28T05:29:30.437Z,101057.31
2019-04-28T05:32:00.992Z,101059.05
2019-04-28T05:34:29.645Z,101072.94
2019-04-28T05:36:58.027Z,101066.05
2019-04-28T05:39:26.238Z,101071.66
2019-04-28T05:41:54.450Z,101075.98
2019-04-28T05:44:22.687Z,101079.01
2019-04-28T05:46:50.924Z,101081.19
2019-04-28T05:49:20.771Z,101085.11
2019-04-28T05:51:50.684Z,101085.52
2019-04-28T05:54:20.565Z,101086.82
2019-04-28T05:57:02.557Z,101089.04
2019-04-28T05:59:42.743Z,101084.73
2019-04-28T06:02:30.818Z,101081.23
2019-04-28T06:04:59.947Z,101083.41
2019-04-28T06:07:30.481Z,101085.58
2019-04-28T06:10:00.153Z,101090.34
2019-04-28T06:12:30.244Z,101097.28
2019-04-28T06:15:00.135Z,101105.52
2019-04-28T06:17:29.517Z,101102.92
2019-04-28T06:19:57.824Z,101104.20
2019-04-28T06:22:26.018Z,101099.02
2019-04-28T06:24:54.241Z,101105.08
2019-04-28T06:27:22.437Z,101102.44
2019-04-28T06:29:50.645Z,101105.05
2019-04-28T06:32:18.848Z,101109.36
2019-04-28T06:34:47.058Z,101105.01
2019-04-28T06:37:15.258Z,101104.09
2019-04-28T06:39:43.461Z,101104.09
2019-04-28T06:42:11.665Z,101106.23
2019-04-28T06:44:39.936Z,101110.08
2019-04-28T06:47:08.136Z,101109.55
2019-04-28T06:49:36.359Z,101113.52
2019-04-28T06:52:04.562Z,101112.64
2019-04-28T06:54:32.789Z,101116.53
2019-04-28T06:57:01.033Z,101118.70
2019-04-28T06:59:29.277Z,101123.98
2019-04-28T07:01:57.494Z,101121.45
2019-04-28T07:04:25.692Z,101124.03
2019-04-28T07:06:53.920Z,101117.95
2019-04-28T07:09:22.198Z,101122.33
2019-04-28T07:11:50.528Z,101112.79
2019-04-28T07:14:18.755Z,101117.92
2019-04-28T07:16:46.944Z,101120.54
2019-04-28T07:19:27.141Z,101128.78
2019-04-28T07:22:06.094Z,101130.07
2019-04-28T07:24:34.339Z,101116.19
2019-04-28T07:27:02.569Z,101120.89
2019-04-28T07:29:30.792Z,101118.25
2019-04-28T07:31:59.192Z,101131.73
2019-04-28T07:34:27.430Z,101129.95
2019-04-28T07:36:55.663Z,101124.79
2019-04-28T07:39:23.883Z,101131.83
2019-04-28T07:41:52.098Z,101124.37
2019-04-28T07:44:20.315Z,101127.34
2019-04-28T07:46:48.547Z,101123.75
2019-04-28T07:49:16.863Z,101130.59
2019-04-28T07:51:52.529Z,101138.02
2019-04-28T07:54:21.941Z,101143.24
2019-04-28T07:56:53.414Z,101141.09
2019-04-28T07:59:21.622Z,101141.13
2019-04-28T08:01:50.568Z,101148.52
2019-04-28T08:04:18.868Z,101156.77
2019-04-28T08:06:47.108Z,101155.00
2019-04-28T08:09:16.955Z,101151.05
2019-04-28T08:11:45.191Z,101154.89
2019-04-28T08:14:13.549Z,101164.36
2019-04-28T08:16:41.736Z,101157.73
2019-04-28T08:19:09.938Z,101153.73
2019-04-28T08:21:38.183Z,101162.39
2019-04-28T08:24:06.883Z,101168.17
2019-04-28T08:26:36.333Z,101170.50
2019-04-28T08:29:04.687Z,101174.98
2019-04-28T08:31:37.213Z,101184.98
2019-04-28T08:34:07.085Z,101171.92
2019-04-28T08:36:35.306Z,101173.13
2019-04-28T08:39:05.222Z,101177.65
2019-04-28T08:41:33.434Z,101176.34
2019-04-28T08:44:01.677Z,101178.34
2019-04-28T08:46:29.880Z,101172.37
2019-04-28T08:48:58.124Z,101171.33
2019-04-28T08:51:26.327Z,101169.89
2019-04-28T08:53:54.554Z,101166.95
2019-04-28T08:56:22.764Z,101168.39
2019-04-28T08:58:50.995Z,101169.50
2019-04-28T09:01:19.250Z,101171.95
2019-04-28T09:03:47.421Z,101173.75
2019-04-28T09:06:15.642Z,101175.70
2019-04-28T09:08:43.875Z,101181.02
2019-04-28T09:11:12.075Z,101183.99
2019-04-28T09:13:40.303Z,101190.66
2019-04-28T09:16:08.521Z,101192.95
2019-04-28T09:18:37.598Z,101193.77
2019-04-28T09:21:05.827Z,101194.17
2019-04-28T09:23:34.104Z,101193.59
2019-04-28T09:26:02.263Z,101194.49
2019-04-28T09:28:33.444Z,101193.52
2019-04-28T09:31:01.666Z,101191.93
2019-04-28T09:33:29.895Z,101192.61
2019-04-28T09:35:58.113Z,101191.44
2019-04-28T09:38:26.316Z,101184.42
2019-04-28T09:40:54.542Z,101190.70
2019-04-28T09:43:24.532Z,101189.84
2019-04-28T09:46:00.589Z,101188.89
2019-04-28T09:48:31.848Z,101193.78
2019-04-28T09:51:00.078Z,101194.84
2019-04-28T09:53:28.281Z,101193.36
2019-04-28T09:55:56.493Z,101195.70
2019-04-28T09:58:24.724Z,101205.65
2019-04-28T10:00:52.949Z,101202.87
2019-04-28T10:03:21.154Z,101203.13
2019-04-28T10:05:49.396Z,101199.19
2019-04-28T10:08:17.613Z,101198.89
2019-04-28T10:10:45.843Z,101204.28
2019-04-28T10:13:14.074Z,101203.63
2019-04-28T10:15:42.308Z,101209.44
2019-04-28T10:18:10.523Z,101212.89
2019-04-28T10:20:38.736Z,101207.10
2019-04-28T10:23:06.985Z,101204.98
2019-04-28T10:25:35.220Z,101214.16
2019-04-28T10:28:03.417Z,101210.66
2019-04-28T10:30:31.640Z,101214.11
2019-04-28T10:32:59.909Z,101212.17
2019-04-28T10:35:28.175Z,101209.41
2019-04-28T10:37:56.386Z,101216.27
2019-04-28T10:40:37.326Z,101215.30
2019-04-28T10:43:05.631Z,101220.31
2019-04-28T10:45:35.544Z,101216.41
2019-04-28T10:48:05.108Z,101225.53
2019-04-28T10:50:33.317Z,101226.63
2019-04-28T10:53:01.576Z,101221.77
2019-04-28T10:55:29.795Z,101228.31
2019-04-28T10:57:58.001Z,101224.23
2019-04-28T11:00:27.843Z,101220.81
2019-04-28T11:02:56.063Z,101225.55
2019-04-28T11:05:28.574Z,101214.61
2019-04-28T11:07:56.810Z,101221.50
2019-04-28T11:10:25.033Z,101226.78
2019-04-28T11:12:53.234Z,101223.57
2019-04-28T11:15:28.867Z,101220.02
2019-04-28T11:17:58.717Z,101224.74
2019-04-28T11:20:26.941Z,101223.94
2019-04-28T11:22:55.177Z,101219.91
2019-04-28T11:25:23.382Z,101217.94
2019-04-28T11:27:51.640Z,101209.69
2019-04-28T11:30:20.586Z,101209.16
2019-04-28T11:32:50.446Z,101211.60
2019-04-28T11:35:23.517Z,101217.97
2019-04-28T11:37:51.773Z,101207.53
2019-04-28T11:40:19.995Z,101210.39
2019-04-28T11:42:48.221Z,101207.84
2019-04-28T11:45:16.505Z,101208.06
2019-04-28T11:47:44.727Z,101214.20
2019-04-28T11:50:12.932Z,101216.80
2019-04-28T11:52:41.134Z,101221.05
2019-04-28T11:55:09.427Z,101225.68
2019-04-28T11:57:37.666Z,101224.51
2019-04-28T12:00:08.070Z,101229.09
2019-04-28T12:02:36.294Z,101228.03
2019-04-28T12:05:05.730Z,101226.37
2019-04-28T12:07:33.943Z,101228.41
2019-04-28T12:10:06.710Z,101224.66
2019-04-28T12:12:48.621Z,101222.19
2019-04-28T12:15:48.980Z,101220.50
2019-04-28T12:18:27.770Z,101222.88
2019-04-28T12:20:56.005Z,101223.55
2019-04-28T12:23:24.196Z,101229.56
2019-04-28T12:25:53.443Z,101236.69
2019-04-28T12:28:21.655Z,101234.20
2019-04-28T12:30:49.900Z,101229.38
2019-04-28T12:33:18.116Z,101235.05
2019-04-28T12:35:48.020Z,101234.50
2019-04-28T12:38:16.286Z,101236.22
2019-04-28T12:40:44.514Z,101240.31
2019-04-28T12:43:12.736Z,101233.31
2019-04-28T12:45:40.981Z,101238.31
2019-04-28T12:48:09.274Z,101243.61
2019-04-28T12:50:45.203Z,101242.86
2019-04-28T12:53:13.389Z,101242.30
2019-04-28T12:55:41.629Z,101244.27
2019-04-28T12:58:09.833Z,101247.22
2019-04-28T13:00:45.786Z,101242.91
2019-04-28T13:03:24.271Z,101242.30
2019-04-28T13:06:03.776Z,101235.30
2019-04-28T13:08:26.753Z,101245.38
2019-04-28T13:10:54.980Z,101239.87
2019-04-28T13:13:23.174Z,101242.97
2019-04-28T13:15:51.482Z,101239.88
2019-04-28T13:18:19.680Z,101244.98
2019-04-28T13:20:47.896Z,101240.54
2019-04-28T13:23:16.112Z,101244.53
2019-04-28T13:25:44.324Z,101256.09
2019-04-28T13:28:12.595Z,101250.50
2019-04-28T13:30:40.788Z,101254.71
2019-04-28T13:33:09.019Z,101246.57
2019-04-28T13:35:37.240Z,101251.16
2019-04-28T13:38:05.471Z,101254.44
2019-04-28T13:40:38.232Z,101246.84
2019-04-28T13:43:06.466Z,101252.38
2019-04-28T13:45:37.556Z,101248.28
2019-04-28T13:48:05.872Z,101254.36
2019-04-28T13:50:35.990Z,101252.95
2019-04-28T13:53:04.837Z,101259.14
2019-04-28T13:56:00.067Z,101256.95
2019-04-28T13:58:29.315Z,101260.90
2019-04-28T14:00:59.189Z,101259.17
2019-04-28T14:03:41.398Z,101258.41
2019-04-28T14:06:11.233Z,101255.19
2019-04-28T14:08:39.502Z,101254.02
2019-04-28T14:11:07.702Z,101258.15
2019-04-28T14:13:35.938Z,101263.25
2019-04-28T14:16:04.213Z,101267.05
2019-04-28T14:18:32.455Z,101272.63
2019-04-28T14:21:00.668Z,101270.24
2019-04-28T14:23:28.886Z,101278.86
2019-04-28T14:25:57.104Z,101277.68
2019-04-28T14:28:25.310Z,101279.87
2019-04-28T14:30:53.535Z,101283.59
2019-04-28T14:33:21.755Z,101282.63
2019-04-28T14:35:49.962Z,101285.25
2019-04-28T14:38:18.201Z,101284.14
2019-04-28T14:40:46.488Z,101275.91
2019-04-28T14:43:14.704Z,101277.16
2019-04-28T14:45:42.950Z,101289.36
2019-04-28T14:48:11.129Z,101283.39
2019-04-28T14:50:39.356Z,101286.78
2019-04-28T14:53:08.838Z,101282.08
2019-04-28T14:55:37.169Z,101286.06
2019-04-28T14:58:05.374Z,101290.50
2019-04-28T15:00:35.377Z,101285.83
2019-04-28T15:03:05.258Z,101289.45
2019-04-28T15:05:44.136Z,101290.77
2019-04-28T15:08:16.679Z,101293.28
2019-04-28T15:10:55.371Z,101289.47
2019-04-28T15:13:25.235Z,101289.69
2019-04-28T15:15:53.462Z,101289.90
2019-04-28T15:18:21.687Z,101285.16
2019-04-28T15:20:49.870Z,101289.53
2019-04-28T15:23:18.078Z,101284.66
2019-04-28T15:25:46.313Z,101284.91
2019-04-28T15:28:14.527Z,101291.42
2019-04-28T15:30:42.825Z,101288.31
2019-04-28T15:33:11.253Z,101291.45
2019-04-28T15:35:39.541Z,101285.56
2019-04-28T15:38:10.535Z,101283.99
2019-04-28T15:40:38.783Z,101286.00
2019-04-28T15:43:07.001Z,101285.28
2019-04-28T15:45:35.209Z,101289.78
2019-04-28T15:48:03.588Z,101290.34
2019-04-28T15:50:31.773Z,101289.70
2019-04-28T15:52:59.992Z,101289.55
2019-04-28T15:55:29.840Z,101292.83
2019-04-28T15:57:58.071Z,101295.23
2019-04-28T16:00:26.295Z,101292.42
2019-04-28T16:02:54.568Z,101293.25
2019-04-28T16:05:22.826Z,101301.56
2019-04-28T16:07:51.127Z,101301.50
2019-04-28T16:10:19.334Z,101298.27
2019-04-28T16:12:53.138Z,101299.27
2019-04-28T16:15:21.404Z,101304.45
2019-04-28T16:17:49.612Z,101314.42
2019-04-28T16:20:19.465Z,101311.37
2019-04-28T16:22:47.693Z,101313.95
2019-04-28T16:25:15.911Z,101316.05
2019-04-28T16:27:44.175Z,101311.87
2019-04-28T16:30:12.379Z,101316.61
2019-04-28T16:32:40.603Z,101318.87
2019-04-28T16:35:08.839Z,101324.63
2019-04-28T16:37:39.061Z,101322.50
2019-04-28T16:40:09.518Z,101324.84
2019-04-28T16:42:36.925Z,101331.39
2019-04-28T16:45:06.009Z,101334.53
2019-04-28T16:47:34.236Z,101334.82
2019-04-28T16:50:02.457Z,101331.48
2019-04-28T16:52:30.666Z,101327.64
2019-04-28T16:55:15.541Z,101333.57
2019-04-28T16:57:44.756Z,101330.59
2019-04-28T17:00:30.788Z,101337.87
2019-04-28T17:02:59.198Z,101336.89
2019-04-28T17:05:27.452Z,101310.52
2019-04-28T17:07:55.852Z,101341.00
2019-04-28T17:11:16.087Z,101338.33
2019-04-28T17:13:44.326Z,101349.48
2019-04-28T17:16:12.616Z,101352.83
2019-04-28T17:18:42.543Z,101351.33
2019-04-28T17:21:10.756Z,101356.81
2019-04-28T17:23:39.030Z,101360.31
2019-04-28T17:26:07.362Z,101360.50
2019-04-28T17:28:35.638Z,101363.61
2019-04-28T17:31:03.862Z,101368.92
2019-04-28T17:33:33.846Z,101363.47
2019-04-28T17:36:01.988Z,101374.29
2019-04-28T17:38:30.246Z,101295.36
2019-04-28T17:40:58.470Z,101377.25
2019-04-28T17:43:26.682Z,101378.05
2019-04-28T17:45:54.989Z,101379.73
2019-04-28T17:48:27.819Z,101381.33
2019-04-28T17:50:56.026Z,101382.06
2019-04-28T17:53:24.234Z,101383.06
2019-04-28T17:55:52.491Z,101386.36
2019-04-28T17:58:21.089Z,101387.28
2019-04-28T18:00:56.761Z,101402.39
2019-04-28T18:03:32.292Z,101399.70
2019-04-28T18:06:18.060Z,101398.03
2019-04-28T18:08:45.545Z,101403.08
2019-04-28T18:11:14.049Z,101405.72
2019-04-28T18:13:42.260Z,101407.19
2019-04-28T18:16:16.460Z,101413.33
2019-04-28T18:18:52.027Z,101410.13
2019-04-28T18:21:20.255Z,101408.81
2019-04-28T18:23:48.461Z,101412.59
2019-04-28T18:26:16.714Z,101416.83
2019-04-28T18:28:44.941Z,101423.11
2019-04-28T18:31:14.848Z,101433.05
2019-04-28T18:34:02.273Z,101436.08
2019-04-28T18:36:32.280Z,101438.66
2019-04-28T18:39:02.131Z,101448.69
2019-04-28T18:41:37.816Z,101453.62
2019-04-28T18:44:19.883Z,101462.18
2019-04-28T18:46:48.095Z,101455.36
2019-04-28T18:49:16.297Z,101458.91
2019-04-28T18:51:44.514Z,101465.01
2019-04-28T18:54:13.743Z,101465.78
2019-04-28T18:56:41.961Z,101469.72
2019-04-28T18:59:10.177Z,101474.58
2019-04-28T19:01:40.034Z,101485.81
2019-04-28T19:04:08.307Z,101484.00
2019-04-28T19:06:36.591Z,101490.66
2019-04-28T19:09:13.851Z,101498.11
2019-04-28T19:11:45.390Z,101503.50
2019-04-28T19:14:22.324Z,101505.30
2019-04-28T19:17:07.498Z,101517.23
2019-04-28T19:19:37.357Z,101518.64
2019-04-28T19:22:05.559Z,101525.23
2019-04-28T19:24:39.707Z,101530.11
2019-04-28T19:27:07.915Z,101527.15
2019-04-28T19:29:37.812Z,101530.28
2019-04-28T19:32:06.028Z,101530.59
2019-04-28T19:34:38.667Z,101530.84
2019-04-28T19:37:04.173Z,101531.25
2019-04-28T19:39:32.397Z,101527.23
2019-04-28T19:42:00.624Z,101528.08
2019-04-28T19:44:28.857Z,101539.48
2019-04-28T19:46:58.427Z,101546.86
2019-04-28T19:49:26.651Z,101559.94
2019-04-28T19:51:57.053Z,101562.08
2019-04-28T19:54:26.898Z,101565.58
2019-04-28T19:57:02.954Z,101568.64
2019-04-28T19:59:35.825Z,101572.66
2019-04-28T20:02:04.076Z,101579.70
2019-04-28T20:04:32.296Z,101588.91
2019-04-28T20:07:00.507Z,101583.25
2019-04-28T20:09:28.729Z,101585.88
2019-04-28T20:11:56.951Z,101587.22
2019-04-28T20:14:25.168Z,101595.08
2019-04-28T20:16:53.406Z,101595.97
2019-04-28T20:19:21.641Z,101599.09
2019-04-28T20:21:49.831Z,101596.94
2019-04-28T20:24:19.605Z,101600.89
2019-04-28T20:26:48.025Z,101596.56
2019-04-28T20:29:19.566Z,101596.63
2019-04-28T20:31:47.766Z,101592.27
2019-04-28T20:34:16.014Z,101592.28
2019-04-28T20:36:51.535Z,101591.86
2019-04-28T20:39:27.391Z,101591.47
2019-04-28T20:41:57.386Z,101593.22
2019-04-28T20:44:25.682Z,101590.16
2019-04-28T20:46:53.902Z,101596.27
2019-04-28T20:49:23.146Z,101592.36
2019-04-28T20:51:51.463Z,101604.09
2019-04-28T20:54:19.693Z,101606.28
2019-04-28T20:56:47.914Z,101608.45
2019-04-28T20:59:16.123Z,101612.81
2019-04-28T21:01:44.348Z,101615.02
2019-04-28T21:04:12.552Z,101613.70
2019-04-28T21:06:40.776Z,101551.08
2019-04-28T21:09:09.713Z,101609.79
2019-04-28T21:11:38.983Z,101612.83
2019-04-28T21:14:07.221Z,101618.06
2019-04-28T21:16:35.436Z,101619.79
2019-04-28T21:19:03.654Z,101621.08
2019-04-28T21:21:31.880Z,101626.25
2019-04-28T21:24:00.069Z,101629.30
2019-04-28T21:26:28.293Z,101630.59
2019-04-28T21:28:56.487Z,101633.15
2019-04-28T21:31:24.724Z,101630.59
2019-04-28T21:33:52.939Z,101635.39
2019-04-28T21:36:22.875Z,101641.06
2019-04-28T21:38:51.157Z,101643.69
2019-04-28T21:41:19.375Z,101642.36
2019-04-28T21:43:49.227Z,101647.13
2019-04-28T21:46:22.014Z,101522.17
2019-04-28T21:48:54.964Z,101645.80
2019-04-28T21:51:23.183Z,101642.28
2019-04-28T21:53:52.981Z,101647.53
2019-04-28T21:56:27.436Z,101644.94
2019-04-28T21:58:55.165Z,101650.59
2019-04-28T22:01:23.312Z,101647.98
2019-04-28T22:03:52.012Z,101645.77
2019-04-28T22:06:20.202Z,101654.34
2019-04-28T22:08:48.427Z,101645.61
2019-04-28T22:11:16.645Z,101648.69
2019-04-28T22:13:44.860Z,101648.23
2019-04-28T22:16:13.097Z,101645.88
2019-04-28T22:18:41.298Z,101654.75
2019-04-28T22:21:09.578Z,101656.29
2019-04-28T22:23:55.647Z,101653.98
2019-04-28T22:26:41.377Z,101662.80
2019-04-28T22:29:09.612Z,101662.17
2019-04-28T22:31:37.816Z,101654.97
2019-04-28T22:34:06.034Z,101652.86
2019-04-28T22:36:34.229Z,101650.20
2019-04-28T22:39:02.441Z,101649.77
2019-04-28T22:41:30.700Z,101663.54
2019-04-28T22:43:58.887Z,101660.92
2019-04-28T22:46:27.084Z,101653.53
2019-04-28T22:48:56.963Z,101655.32
2019-04-28T22:51:25.231Z,101660.89
2019-04-28T22:53:53.437Z,101661.89
2019-04-28T22:56:23.266Z,101667.09
2019-04-28T22:58:53.141Z,101664.11
2019-04-28T23:01:39.376Z,101669.69
2019-04-28T23:04:12.036Z,101670.05
2019-04-28T23:06:40.235Z,101676.54
2019-04-28T23:09:10.095Z,101672.56
2019-04-28T23:11:38.299Z,101679.05
2019-04-28T23:14:06.574Z,101679.44
2019-04-28T23:16:34.747Z,101678.94
2019-04-28T23:19:04.605Z,101674.17
2019-04-28T23:21:34.452Z,101691.04
2019-04-28T23:24:02.661Z,101686.74
2019-04-28T23:26:30.867Z,101689.34
2019-04-28T23:28:59.093Z,101696.72
2019-04-28T23:31:27.299Z,101687.08
2019-04-28T23:33:55.603Z,101694.73
2019-04-28T23:36:23.819Z,101697.30
2019-04-28T23:38:52.023Z,101695.17
2019-04-28T23:41:31.011Z,101691.27
2019-04-28T23:43:59.206Z,101691.13
2019-04-28T23:46:46.402Z,101691.45
2019-04-28T23:49:14.598Z,101692.59
2019-04-28T23:51:44.463Z,101696.15
2019-04-28T23:54:12.660Z,101702.20
2019-04-28T23:56:44.213Z,101695.94
2019-04-28T23:59:12.439Z,101699.50
